sensor_id;sensor_type;location;lat;lon;timestamp;pressure;altitude;pressure_sealevel;temperature
15607;BMP180;7865;50.918;4.510;2023-07-31T00:03:56;100705.00;;;15.40
15607;BMP180;7865;50.918;4.510;2023-07-31T00:08:57;100705.00;;;15.40
15607;BMP180;7865;50.918;4.510;2023-07-31T00:13:58;100704.00;;;15.50
15607;BMP180;7865;50.918;4.510;2023-07-31T00:19:00;100702.00;;;15.60
15607;BMP180;7865;50.918;4.510;2023-07-31T00:24:01;100680.00;;;15.70
15607;BMP180;7865;50.918;4.510;2023-07-31T00:29:02;100670.00;;;15.70
15607;BMP180;7865;50.918;4.510;2023-07-31T00:34:04;100680.00;;;15.80
15607;BMP180;7865;50.918;4.510;2023-07-31T00:39:08;100671.00;;;15.90
15607;BMP180;7865;50.918;4.510;2023-07-31T00:44:10;100672.00;;;15.90
15607;BMP180;7865;50.918;4.510;2023-07-31T00:49:12;100664.00;;;16.00
15607;BMP180;7865;50.918;4.510;2023-07-31T00:54:13;100658.00;;;16.00
15607;BMP180;7865;50.918;4.510;2023-07-31T00:59:14;100663.00;;;16.10
15607;BMP180;7865;50.918;4.510;2023-07-31T01:04:17;100663.00;;;16.10
15607;BMP180;7865;50.918;4.510;2023-07-31T01:14:26;100656.00;;;16.20
15607;BMP180;7865;50.918;4.510;2023-07-31T01:19:28;100653.00;;;16.20
15607;BMP180;7865;50.918;4.510;2023-07-31T01:24:41;100647.00;;;16.10
15607;BMP180;7865;50.918;4.510;2023-07-31T01:29:55;100651.00;;;16.10
15607;BMP180;7865;50.918;4.510;2023-07-31T01:34:58;100654.00;;;16.10
15607;BMP180;7865;50.918;4.510;2023-07-31T01:40:00;100652.00;;;16.10
15607;BMP180;7865;50.918;4.510;2023-07-31T01:45:02;100642.00;;;16.10
15607;BMP180;7865;50.918;4.510;2023-07-31T01:50:05;100633.00;;;16.20
15607;BMP180;7865;50.918;4.510;2023-07-31T01:55:06;100628.00;;;16.20
15607;BMP180;7865;50.918;4.510;2023-07-31T02:00:08;100612.00;;;16.20
15607;BMP180;7865;50.918;4.510;2023-07-31T02:05:15;100599.00;;;16.20
15607;BMP180;7865;50.918;4.510;2023-07-31T02:10:17;100603.00;;;16.20
15607;BMP180;7865;50.918;4.510;2023-07-31T02:15:18;100596.00;;;16.30
15607;BMP180;7865;50.918;4.510;2023-07-31T02:20:19;100593.00;;;16.30
15607;BMP180;7865;50.918;4.510;2023-07-31T02:25:21;100574.00;;;16.30
15607;BMP180;7865;50.918;4.510;2023-07-31T02:30:22;100577.00;;;16.30
15607;BMP180;7865;50.918;4.510;2023-07-31T02:35:23;100566.00;;;16.40
15607;BMP180;7865;50.918;4.510;2023-07-31T02:40:25;100552.00;;;16.40
15607;BMP180;7865;50.918;4.510;2023-07-31T02:45:26;100554.00;;;16.40
15607;BMP180;7865;50.918;4.510;2023-07-31T02:50:28;100541.00;;;16.40
15607;BMP180;7865;50.918;4.510;2023-07-31T02:55:29;100532.00;;;16.40
15607;BMP180;7865;50.918;4.510;2023-07-31T03:00:31;100539.00;;;16.50
15607;BMP180;7865;50.918;4.510;2023-07-31T03:05:33;100538.00;;;16.50
15607;BMP180;7865;50.918;4.510;2023-07-31T03:10:34;100536.00;;;16.50
15607;BMP180;7865;50.918;4.510;2023-07-31T03:15:35;100530.00;;;16.50
15607;BMP180;7865;50.918;4.510;2023-07-31T03:20:37;100515.00;;;16.50
15607;BMP180;7865;50.918;4.510;2023-07-31T03:25:41;100510.00;;;16.40
15607;BMP180;7865;50.918;4.510;2023-07-31T03:30:42;100514.00;;;16.40
15607;BMP180;7865;50.918;4.510;2023-07-31T03:35:44;100513.00;;;16.40
15607;BMP180;7865;50.918;4.510;2023-07-31T03:40:45;100492.00;;;16.40
15607;BMP180;7865;50.918;4.510;2023-07-31T03:45:46;100505.00;;;16.40
15607;BMP180;7865;50.918;4.510;2023-07-31T03:50:48;100488.00;;;16.40
15607;BMP180;7865;50.918;4.510;2023-07-31T03:55:49;100482.00;;;16.30
15607;BMP180;7865;50.918;4.510;2023-07-31T04:00:50;100491.00;;;16.20
15607;BMP180;7865;50.918;4.510;2023-07-31T04:05:54;100477.00;;;16.20
15607;BMP180;7865;50.918;4.510;2023-07-31T04:10:56;100469.00;;;16.10
15607;BMP180;7865;50.918;4.510;2023-07-31T04:15:57;100457.00;;;16.10
15607;BMP180;7865;50.918;4.510;2023-07-31T04:20:58;100456.00;;;16.10
15607;BMP180;7865;50.918;4.510;2023-07-31T04:25:59;100445.00;;;16.00
15607;BMP180;7865;50.918;4.510;2023-07-31T04:31:01;100459.00;;;16.00
15607;BMP180;7865;50.918;4.510;2023-07-31T04:36:02;100443.00;;;16.00
15607;BMP180;7865;50.918;4.510;2023-07-31T04:41:04;100449.00;;;16.10
15607;BMP180;7865;50.918;4.510;2023-07-31T04:46:06;100440.00;;;16.20
15607;BMP180;7865;50.918;4.510;2023-07-31T04:51:08;100438.00;;;16.20
15607;BMP180;7865;50.918;4.510;2023-07-31T04:56:10;100441.00;;;16.20
15607;BMP180;7865;50.918;4.510;2023-07-31T05:01:11;100438.00;;;16.20
15607;BMP180;7865;50.918;4.510;2023-07-31T05:06:12;100436.00;;;16.20
15607;BMP180;7865;50.918;4.510;2023-07-31T05:11:14;100420.00;;;16.20
15607;BMP180;7865;50.918;4.510;2023-07-31T05:16:15;100431.00;;;16.20
15607;BMP180;7865;50.918;4.510;2023-07-31T05:21:17;100421.00;;;16.30
15607;BMP180;7865;50.918;4.510;2023-07-31T05:26:18;100418.00;;;16.20
15607;BMP180;7865;50.918;4.510;2023-07-31T05:31:20;100411.00;;;16.20
15607;BMP180;7865;50.918;4.510;2023-07-31T05:36:23;100402.00;;;16.10
15607;BMP180;7865;50.918;4.510;2023-07-31T05:41:26;100393.00;;;16.10
15607;BMP180;7865;50.918;4.510;2023-07-31T05:46:28;100407.00;;;16.10
15607;BMP180;7865;50.918;4.510;2023-07-31T05:51:30;100404.00;;;16.10
15607;BMP180;7865;50.918;4.510;2023-07-31T05:56:31;100402.00;;;16.10
15607;BMP180;7865;50.918;4.510;2023-07-31T06:01:34;100394.00;;;16.00
15607;BMP180;7865;50.918;4.510;2023-07-31T06:06:35;100397.00;;;16.20
15607;BMP180;7865;50.918;4.510;2023-07-31T06:11:37;100385.00;;;16.40
15607;BMP180;7865;50.918;4.510;2023-07-31T06:16:38;100393.00;;;16.40
15607;BMP180;7865;50.918;4.510;2023-07-31T06:21:40;100387.00;;;16.40
15607;BMP180;7865;50.918;4.510;2023-07-31T06:26:44;100388.00;;;16.40
15607;BMP180;7865;50.918;4.510;2023-07-31T06:31:45;100381.00;;;16.50
15607;BMP180;7865;50.918;4.510;2023-07-31T06:36:47;100375.00;;;16.60
15607;BMP180;7865;50.918;4.510;2023-07-31T06:41:48;100373.00;;;16.80
15607;BMP180;7865;50.918;4.510;2023-07-31T06:46:49;100366.00;;;17.20
15607;BMP180;7865;50.918;4.510;2023-07-31T06:51:51;100352.00;;;17.60
15607;BMP180;7865;50.918;4.510;2023-07-31T06:56:52;100350.00;;;17.90
15607;BMP180;7865;50.918;4.510;2023-07-31T07:01:53;100337.00;;;18.30
15607;BMP180;7865;50.918;4.510;2023-07-31T07:06:55;100325.00;;;18.70
15607;BMP180;7865;50.918;4.510;2023-07-31T07:11:56;100321.00;;;19.10
15607;BMP180;7865;50.918;4.510;2023-07-31T07:16:57;100336.00;;;19.20
15607;BMP180;7865;50.918;4.510;2023-07-31T07:21:58;100343.00;;;19.40
15607;BMP180;7865;50.918;4.510;2023-07-31T07:27:03;100338.00;;;19.50
15607;BMP180;7865;50.918;4.510;2023-07-31T07:32:05;100348.00;;;19.50
15607;BMP180;7865;50.918;4.510;2023-07-31T07:37:06;100349.00;;;19.10
15607;BMP180;7865;50.918;4.510;2023-07-31T07:42:07;100357.00;;;18.70
15607;BMP180;7865;50.918;4.510;2023-07-31T07:47:08;100362.00;;;18.70
15607;BMP180;7865;50.918;4.510;2023-07-31T07:52:09;100366.00;;;18.60
15607;BMP180;7865;50.918;4.510;2023-07-31T07:57:11;100357.00;;;18.60
15607;BMP180;7865;50.918;4.510;2023-07-31T08:02:12;100361.00;;;18.80
15607;BMP180;7865;50.918;4.510;2023-07-31T08:07:14;100356.00;;;19.10
15607;BMP180;7865;50.918;4.510;2023-07-31T08:12:15;100355.00;;;19.10
15607;BMP180;7865;50.918;4.510;2023-07-31T08:17:16;100351.00;;;19.90
15607;BMP180;7865;50.918;4.510;2023-07-31T08:22:18;100351.00;;;20.30
15607;BMP180;7865;50.918;4.510;2023-07-31T08:27:19;100346.00;;;20.70
15607;BMP180;7865;50.918;4.510;2023-07-31T08:32:20;100360.00;;;20.50
15607;BMP180;7865;50.918;4.510;2023-07-31T08:37:21;100359.00;;;20.00
15607;BMP180;7865;50.918;4.510;2023-07-31T08:42:22;100361.00;;;20.20
15607;BMP180;7865;50.918;4.510;2023-07-31T08:47:25;100359.00;;;19.90
15607;BMP180;7865;50.918;4.510;2023-07-31T08:52:27;100348.00;;;19.70
15607;BMP180;7865;50.918;4.510;2023-07-31T08:57:28;100354.00;;;19.80
15607;BMP180;7865;50.918;4.510;2023-07-31T09:02:36;100344.00;;;20.10
15607;BMP180;7865;50.918;4.510;2023-07-31T09:07:39;100353.00;;;19.70
15607;BMP180;7865;50.918;4.510;2023-07-31T09:12:42;100351.00;;;19.80
15607;BMP180;7865;50.918;4.510;2023-07-31T09:17:44;100360.00;;;19.80
15607;BMP180;7865;50.918;4.510;2023-07-31T09:22:46;100342.00;;;19.90
15607;BMP180;7865;50.918;4.510;2023-07-31T09:27:59;100324.00;;;20.10
15607;BMP180;7865;50.918;4.510;2023-07-31T09:33:04;100318.00;;;21.60
15607;BMP180;7865;50.918;4.510;2023-07-31T09:38:10;100312.00;;;23.50
15607;BMP180;7865;50.918;4.510;2023-07-31T09:43:13;100320.00;;;23.50
15607;BMP180;7865;50.918;4.510;2023-07-31T09:48:18;100318.00;;;23.30
15607;BMP180;7865;50.918;4.510;2023-07-31T09:53:19;100312.00;;;23.10
15607;BMP180;7865;50.918;4.510;2023-07-31T09:58:29;100333.00;;;22.30
15607;BMP180;7865;50.918;4.510;2023-07-31T10:03:31;100332.00;;;21.60
15607;BMP180;7865;50.918;4.510;2023-07-31T10:08:34;100324.00;;;20.80
15607;BMP180;7865;50.918;4.510;2023-07-31T10:13:37;100320.00;;;20.60
15607;BMP180;7865;50.918;4.510;2023-07-31T10:18:39;100318.00;;;20.70
15607;BMP180;7865;50.918;4.510;2023-07-31T10:23:42;100317.00;;;20.80
15607;BMP180;7865;50.918;4.510;2023-07-31T10:28:46;100312.00;;;20.80
15607;BMP180;7865;50.918;4.510;2023-07-31T10:33:48;100309.00;;;21.10
15607;BMP180;7865;50.918;4.510;2023-07-31T10:38:50;100321.00;;;21.30
15607;BMP180;7865;50.918;4.510;2023-07-31T10:43:57;100315.00;;;21.20
15607;BMP180;7865;50.918;4.510;2023-07-31T10:49:01;100309.00;;;20.90
15607;BMP180;7865;50.918;4.510;2023-07-31T10:54:20;100292.00;;;21.00
15607;BMP180;7865;50.918;4.510;2023-07-31T10:59:26;100293.00;;;22.20
15607;BMP180;7865;50.918;4.510;2023-07-31T11:04:29;100285.00;;;22.20
15607;BMP180;7865;50.918;4.510;2023-07-31T11:09:32;100282.00;;;21.70
15607;BMP180;7865;50.918;4.510;2023-07-31T11:14:34;100281.00;;;21.50
15607;BMP180;7865;50.918;4.510;2023-07-31T11:19:37;100269.00;;;22.20
15607;BMP180;7865;50.918;4.510;2023-07-31T11:24:39;100263.00;;;22.90
15607;BMP180;7865;50.918;4.510;2023-07-31T11:29:40;100266.00;;;23.00
15607;BMP180;7865;50.918;4.510;2023-07-31T11:34:54;100256.00;;;22.40
15607;BMP180;7865;50.918;4.510;2023-07-31T11:40:02;100250.00;;;22.50
15607;BMP180;7865;50.918;4.510;2023-07-31T11:45:05;100259.00;;;22.60
15607;BMP180;7865;50.918;4.510;2023-07-31T11:50:10;100258.00;;;21.40
15607;BMP180;7865;50.918;4.510;2023-07-31T11:55:13;100252.00;;;21.30
15607;BMP180;7865;50.918;4.510;2023-07-31T12:00:16;100246.00;;;21.10
15607;BMP180;7865;50.918;4.510;2023-07-31T12:05:18;100237.00;;;21.50
15607;BMP180;7865;50.918;4.510;2023-07-31T12:10:30;100206.00;;;21.80
15607;BMP180;7865;50.918;4.510;2023-07-31T12:15:34;100201.00;;;22.00
15607;BMP180;7865;50.918;4.510;2023-07-31T12:20:39;100202.00;;;21.70
15607;BMP180;7865;50.918;4.510;2023-07-31T12:25:41;100200.00;;;21.40
15607;BMP180;7865;50.918;4.510;2023-07-31T12:30:43;100204.00;;;21.40
15607;BMP180;7865;50.918;4.510;2023-07-31T12:35:47;100187.00;;;22.20
15607;BMP180;7865;50.918;4.510;2023-07-31T12:40:48;100179.00;;;22.80
15607;BMP180;7865;50.918;4.510;2023-07-31T12:45:50;100184.00;;;23.20
15607;BMP180;7865;50.918;4.510;2023-07-31T12:50:51;100178.00;;;22.90
15607;BMP180;7865;50.918;4.510;2023-07-31T12:55:53;100175.00;;;23.30
15607;BMP180;7865;50.918;4.510;2023-07-31T13:00:54;100178.00;;;22.90
15607;BMP180;7865;50.918;4.510;2023-07-31T13:05:55;100179.00;;;22.10
15607;BMP180;7865;50.918;4.510;2023-07-31T13:10:57;100179.00;;;21.30
15607;BMP180;7865;50.918;4.510;2023-07-31T13:15:58;100187.00;;;20.80
15607;BMP180;7865;50.918;4.510;2023-07-31T13:21:00;100200.00;;;20.50
15607;BMP180;7865;50.918;4.510;2023-07-31T13:26:01;100192.00;;;20.10
15607;BMP180;7865;50.918;4.510;2023-07-31T13:31:02;100183.00;;;20.00
15607;BMP180;7865;50.918;4.510;2023-07-31T13:36:04;100175.00;;;19.50
15607;BMP180;7865;50.918;4.510;2023-07-31T13:41:06;100169.00;;;19.00
15607;BMP180;7865;50.918;4.510;2023-07-31T13:46:07;100179.00;;;18.80
15607;BMP180;7865;50.918;4.510;2023-07-31T13:51:09;100172.00;;;18.60
15607;BMP180;7865;50.918;4.510;2023-07-31T13:56:10;100179.00;;;18.70
15607;BMP180;7865;50.918;4.510;2023-07-31T14:01:11;100176.00;;;18.80
15607;BMP180;7865;50.918;4.510;2023-07-31T14:06:13;100180.00;;;18.60
15607;BMP180;7865;50.918;4.510;2023-07-31T14:11:14;100178.00;;;18.70
15607;BMP180;7865;50.918;4.510;2023-07-31T14:16:16;100176.00;;;18.70
15607;BMP180;7865;50.918;4.510;2023-07-31T14:21:17;100160.00;;;18.70
15607;BMP180;7865;50.918;4.510;2023-07-31T14:26:20;100157.00;;;18.70
15607;BMP180;7865;50.918;4.510;2023-07-31T14:31:21;100128.00;;;18.90
15607;BMP180;7865;50.918;4.510;2023-07-31T14:36:23;100123.00;;;19.00
15607;BMP180;7865;50.918;4.510;2023-07-31T14:41:24;100112.00;;;18.90
15607;BMP180;7865;50.918;4.510;2023-07-31T14:46:25;100121.00;;;18.70
15607;BMP180;7865;50.918;4.510;2023-07-31T14:51:27;100124.00;;;18.60
15607;BMP180;7865;50.918;4.510;2023-07-31T14:56:29;100118.00;;;18.70
15607;BMP180;7865;50.918;4.510;2023-07-31T15:01:30;100084.00;;;18.80
15607;BMP180;7865;50.918;4.510;2023-07-31T15:06:32;100083.00;;;18.80
15607;BMP180;7865;50.918;4.510;2023-07-31T15:11:33;100077.00;;;18.60
15607;BMP180;7865;50.918;4.510;2023-07-31T15:16:34;100070.00;;;18.70
15607;BMP180;7865;50.918;4.510;2023-07-31T15:21:37;100054.00;;;18.60
15607;BMP180;7865;50.918;4.510;2023-07-31T15:26:38;100050.00;;;18.40
15607;BMP180;7865;50.918;4.510;2023-07-31T15:31:41;100037.00;;;18.50
15607;BMP180;7865;50.918;4.510;2023-07-31T15:36:42;100022.00;;;18.50
15607;BMP180;7865;50.918;4.510;2023-07-31T15:41:44;100015.00;;;18.40
15607;BMP180;7865;50.918;4.510;2023-07-31T15:46:46;100017.00;;;18.30
15607;BMP180;7865;50.918;4.510;2023-07-31T15:51:47;100010.00;;;18.20
15607;BMP180;7865;50.918;4.510;2023-07-31T15:56:48;99989.00;;;18.20
15607;BMP180;7865;50.918;4.510;2023-07-31T16:01:49;99992.00;;;18.20
15607;BMP180;7865;50.918;4.510;2023-07-31T16:06:51;99984.00;;;18.00
15607;BMP180;7865;50.918;4.510;2023-07-31T16:11:52;99988.00;;;18.00
15607;BMP180;7865;50.918;4.510;2023-07-31T16:16:54;99980.00;;;17.90
15607;BMP180;7865;50.918;4.510;2023-07-31T16:21:56;99964.00;;;17.90
15607;BMP180;7865;50.918;4.510;2023-07-31T16:26:57;99967.00;;;18.00
15607;BMP180;7865;50.918;4.510;2023-07-31T16:31:58;99949.00;;;18.30
15607;BMP180;7865;50.918;4.510;2023-07-31T16:37:00;99937.00;;;18.30
15607;BMP180;7865;50.918;4.510;2023-07-31T16:42:02;99929.00;;;18.30
15607;BMP180;7865;50.918;4.510;2023-07-31T16:47:04;99911.00;;;18.10
15607;BMP180;7865;50.918;4.510;2023-07-31T16:52:05;99905.00;;;18.00
15607;BMP180;7865;50.918;4.510;2023-07-31T16:57:06;99906.00;;;17.90
15607;BMP180;7865;50.918;4.510;2023-07-31T17:02:08;99905.00;;;17.80
15607;BMP180;7865;50.918;4.510;2023-07-31T17:07:10;99896.00;;;17.80
15607;BMP180;7865;50.918;4.510;2023-07-31T17:12:12;99880.00;;;17.80
15607;BMP180;7865;50.918;4.510;2023-07-31T17:17:13;99888.00;;;17.80
15607;BMP180;7865;50.918;4.510;2023-07-31T17:22:14;99880.00;;;17.70
15607;BMP180;7865;50.918;4.510;2023-07-31T17:27:16;99875.00;;;17.70
15607;BMP180;7865;50.918;4.510;2023-07-31T17:32:17;99875.00;;;17.70
15607;BMP180;7865;50.918;4.510;2023-07-31T17:37:22;99876.00;;;17.70
15607;BMP180;7865;50.918;4.510;2023-07-31T17:42:23;99872.00;;;17.70
15607;BMP180;7865;50.918;4.510;2023-07-31T17:47:25;99866.00;;;17.60
15607;BMP180;7865;50.918;4.510;2023-07-31T17:52:26;99867.00;;;17.60
15607;BMP180;7865;50.918;4.510;2023-07-31T17:57:27;99866.00;;;17.60
15607;BMP180;7865;50.918;4.510;2023-07-31T18:02:28;99821.00;;;17.60
15607;BMP180;7865;50.918;4.510;2023-07-31T18:07:31;99748.00;;;17.60
15607;BMP180;7865;50.918;4.510;2023-07-31T18:12:32;99665.00;;;17.60
15607;BMP180;7865;50.918;4.510;2023-07-31T18:17:34;99706.00;;;17.60
15607;BMP180;7865;50.918;4.510;2023-07-31T18:22:36;99790.00;;;17.60
15607;BMP180;7865;50.918;4.510;2023-07-31T18:27:38;99795.00;;;17.60
15607;BMP180;7865;50.918;4.510;2023-07-31T18:32:40;99796.00;;;17.70
15607;BMP180;7865;50.918;4.510;2023-07-31T18:37:41;99797.00;;;17.70
15607;BMP180;7865;50.918;4.510;2023-07-31T18:42:43;99786.00;;;17.70
15607;BMP180;7865;50.918;4.510;2023-07-31T18:47:44;99782.00;;;17.50
15607;BMP180;7865;50.918;4.510;2023-07-31T18:52:45;99778.00;;;17.50
15607;BMP180;7865;50.918;4.510;2023-07-31T18:57:47;99788.00;;;17.50
15607;BMP180;7865;50.918;4.510;2023-07-31T19:02:48;99780.00;;;17.50
15607;BMP180;7865;50.918;4.510;2023-07-31T19:07:50;99779.00;;;17.40
15607;BMP180;7865;50.918;4.510;2023-07-31T19:12:51;99769.00;;;17.40
15607;BMP180;7865;50.918;4.510;2023-07-31T19:17:53;99749.00;;;17.40
15607;BMP180;7865;50.918;4.510;2023-07-31T19:22:55;99756.00;;;17.30
15607;BMP180;7865;50.918;4.510;2023-07-31T19:27:56;99743.00;;;17.30
15607;BMP180;7865;50.918;4.510;2023-07-31T19:32:59;99746.00;;;17.30
15607;BMP180;7865;50.918;4.510;2023-07-31T19:38:00;99751.00;;;17.30
15607;BMP180;7865;50.918;4.510;2023-07-31T19:43:01;99754.00;;;17.30
15607;BMP180;7865;50.918;4.510;2023-07-31T19:48:02;99741.00;;;17.30
15607;BMP180;7865;50.918;4.510;2023-07-31T19:53:04;99718.00;;;17.30
15607;BMP180;7865;50.918;4.510;2023-07-31T19:58:05;99713.00;;;17.30
15607;BMP180;7865;50.918;4.510;2023-07-31T20:03:06;99731.00;;;17.30
15607;BMP180;7865;50.918;4.510;2023-07-31T20:08:08;99713.00;;;17.30
15607;BMP180;7865;50.918;4.510;2023-07-31T20:13:09;99698.00;;;17.20
15607;BMP180;7865;50.918;4.510;2023-07-31T20:18:10;99699.00;;;17.20
15607;BMP180;7865;50.918;4.510;2023-07-31T20:23:11;99694.00;;;17.20
15607;BMP180;7865;50.918;4.510;2023-07-31T20:28:13;99680.00;;;17.20
15607;BMP180;7865;50.918;4.510;2023-07-31T20:33:14;99661.00;;;17.30
15607;BMP180;7865;50.918;4.510;2023-07-31T20:38:16;99658.00;;;17.30
15607;BMP180;7865;50.918;4.510;2023-07-31T20:43:17;99649.00;;;17.30
15607;BMP180;7865;50.918;4.510;2023-07-31T20:48:19;99651.00;;;17.30
15607;BMP180;7865;50.918;4.510;2023-07-31T20:53:21;99630.00;;;17.40
15607;BMP180;7865;50.918;4.510;2023-07-31T20:58:22;99634.00;;;17.40
15607;BMP180;7865;50.918;4.510;2023-07-31T21:03:23;99607.00;;;17.40
15607;BMP180;7865;50.918;4.510;2023-07-31T21:08:25;99610.00;;;17.40
15607;BMP180;7865;50.918;4.510;2023-07-31T21:13:26;99608.00;;;17.40
15607;BMP180;7865;50.918;4.510;2023-07-31T21:18:28;99590.00;;;17.40
15607;BMP180;7865;50.918;4.510;2023-07-31T21:23:29;99595.00;;;17.40
15607;BMP180;7865;50.918;4.510;2023-07-31T21:28:30;99589.00;;;17.40
15607;BMP180;7865;50.918;4.510;2023-07-31T21:33:32;99581.00;;;17.40
15607;BMP180;7865;50.918;4.510;2023-07-31T21:38:33;99577.00;;;17.30
15607;BMP180;7865;50.918;4.510;2023-07-31T21:43:34;99573.00;;;17.30
15607;BMP180;7865;50.918;4.510;2023-07-31T21:48:35;99573.00;;;17.20
15607;BMP180;7865;50.918;4.510;2023-07-31T21:53:37;99573.00;;;17.20
15607;BMP180;7865;50.918;4.510;2023-07-31T21:58:38;99532.00;;;17.20
15607;BMP180;7865;50.918;4.510;2023-07-31T22:03:39;99540.00;;;17.10
15607;BMP180;7865;50.918;4.510;2023-07-31T22:08:41;99544.00;;;17.10
15607;BMP180;7865;50.918;4.510;2023-07-31T22:13:42;99554.00;;;17.10
15607;BMP180;7865;50.918;4.510;2023-07-31T22:18:43;99538.00;;;17.00
15607;BMP180;7865;50.918;4.510;2023-07-31T22:23:45;99531.00;;;17.00
15607;BMP180;7865;50.918;4.510;2023-07-31T22:28:46;99521.00;;;16.80
15607;BMP180;7865;50.918;4.510;2023-07-31T22:33:48;99516.00;;;16.80
15607;BMP180;7865;50.918;4.510;2023-07-31T22:38:49;99518.00;;;16.70
15607;BMP180;7865;50.918;4.510;2023-07-31T22:43:51;99510.00;;;16.60
15607;BMP180;7865;50.918;4.510;2023-07-31T22:48:52;99504.00;;;16.50
15607;BMP180;7865;50.918;4.510;2023-07-31T22:53:54;99503.00;;;16.40
15607;BMP180;7865;50.918;4.510;2023-07-31T22:58:55;99500.00;;;16.40
15607;BMP180;7865;50.918;4.510;2023-07-31T23:03:57;99497.00;;;16.40
15607;BMP180;7865;50.918;4.510;2023-07-31T23:08:58;99505.00;;;16.30
15607;BMP180;7865;50.918;4.510;2023-07-31T23:13:59;99490.00;;;16.30
15607;BMP180;7865;50.918;4.510;2023-07-31T23:19:01;99496.00;;;16.30
15607;BMP180;7865;50.918;4.510;2023-07-31T23:24:02;99494.00;;;16.30
15607;BMP180;7865;50.918;4.510;2023-07-31T23:29:04;99496.00;;;16.30
15607;BMP180;7865;50.918;4.510;2023-07-31T23:34:05;99502.00;;;16.20
15607;BMP180;7865;50.918;4.510;2023-07-31T23:39:06;99493.00;;;16.20
15607;BMP180;7865;50.918;4.510;2023-07-31T23:44:07;99487.00;;;16.20
15607;BMP180;7865;50.918;4.510;2023-07-31T23:49:09;99493.00;;;16.10
15607;BMP180;7865;50.918;4.510;2023-07-31T23:54:11;99486.00;;;16.00
15607;BMP180;7865;50.918;4.510;2023-07-31T23:59:13;99487.00;;;15.90
